Time;durP1;ratioP1;P1;durP2;ratioP2;P2;SDS_P1;SDS_P2;PMS_P1;PMS_P2;Temp;Humidity;BMP_temperature;BMP_pressure;BME280_temperature;BME280_humidity;BME280_pressure;Samples;Min_cycle;Max_cycle;Signal;HPM_P1;HPM_P2
2024/04/08 00:01:08;;;;;;;4.35;3.47;;;;;;;14.71;89.80;100552.75;5404592;26;20336;-63
2024/04/08 00:03:34;;;;;;;4.20;2.97;;;;;;;14.75;89.52;100547.91;5388537;26;20437;-63
2024/04/08 00:06:00;;;;;;;5.03;3.40;;;;;;;14.69;88.82;100552.09;5388970;26;20091;-63
2024/04/08 00:08:26;;;;;;;4.40;3.40;;;;;;;14.61;88.70;100547.59;5388932;26;19992;-63
2024/04/08 00:10:52;;;;;;;3.85;3.22;;;;;;;14.54;88.34;100543.91;5389068;26;20122;-65
2024/04/08 00:13:18;;;;;;;4.43;3.38;;;;;;;14.63;88.34;100540.25;5389349;26;19992;-63
2024/04/08 00:15:44;;;;;;;6.03;3.75;;;;;;;14.73;87.69;100540.09;5389346;26;19992;-63
2024/04/08 00:18:09;;;;;;;7.38;3.88;;;;;;;14.77;86.89;100545.91;5389314;26;20007;-63
2024/04/08 00:20:35;;;;;;;5.47;3.92;;;;;;;14.79;85.84;100551.91;5387104;26;20098;-62
2024/04/08 00:23:01;;;;;;;4.65;3.90;;;;;;;14.71;85.41;100555.41;5386770;26;19999;-63
2024/04/08 00:25:27;;;;;;;5.18;4.00;;;;;;;14.53;86.68;100554.72;5388016;26;20003;-62
2024/04/08 00:27:53;;;;;;;5.93;3.88;;;;;;;14.51;87.31;100554.06;5387278;26;20003;-62
2024/04/08 00:30:19;;;;;;;5.50;3.83;;;;;;;14.51;86.74;100552.25;5387946;26;20140;-63
2024/04/08 00:32:45;;;;;;;5.05;3.95;;;;;;;14.45;86.86;100552.91;5388037;26;19992;-63
2024/04/08 00:35:11;;;;;;;4.82;3.97;;;;;;;14.51;86.57;100559.41;5387540;26;19988;-62
2024/04/08 00:37:37;;;;;;;4.20;3.80;;;;;;;14.62;85.85;100556.44;5386649;26;19992;-63
2024/04/08 00:40:04;;;;;;;5.53;3.67;;;;;;;14.69;84.19;100554.75;5387919;26;20100;-63
2024/04/08 00:42:30;;;;;;;4.20;3.38;;;;;;;14.76;83.97;100552.25;5387770;26;20008;-63
2024/04/08 00:44:56;;;;;;;4.40;4.00;;;;;;;14.71;83.48;100546.59;5387738;26;20210;-63
2024/04/08 00:47:22;;;;;;;5.60;3.75;;;;;;;14.70;83.72;100553.75;5387991;26;20807;-63
2024/04/08 00:49:48;;;;;;;4.45;3.72;;;;;;;14.72;84.08;100558.91;5386585;26;20231;-62
2024/04/08 00:52:15;;;;;;;4.63;3.50;;;;;;;14.71;84.04;100549.25;5386577;26;20008;-64
2024/04/08 00:54:42;;;;;;;3.97;3.47;;;;;;;14.66;84.33;100553.25;5387527;26;20296;-64
2024/04/08 00:57:13;;;;;;;5.20;3.70;;;;;;;14.50;85.80;100553.25;5387199;26;20016;-62
2024/04/08 00:59:40;;;;;;;5.72;3.92;;;;;;;14.39;86.69;100549.06;5386707;26;19998;-62
2024/04/08 01:02:06;;;;;;;4.88;4.28;;;;;;;14.29;87.42;100551.06;5387177;26;20290;-63
2024/04/08 01:04:32;;;;;;;5.40;3.90;;;;;;;14.45;86.15;100547.56;5386761;26;19999;-62
2024/04/08 01:07:02;;;;;;;5.38;3.95;;;;;;;14.46;85.51;100554.56;5386426;26;20003;-63
2024/04/08 01:09:28;;;;;;;4.53;3.97;;;;;;;14.40;85.43;100547.22;5387018;26;20000;-62
2024/04/08 01:11:57;;;;;;;5.60;4.93;;;;;;;14.42;85.66;100555.91;5386473;26;20004;-62
2024/04/08 01:14:23;;;;;;;6.45;4.70;;;;;;;14.42;84.96;100549.72;5386843;26;20057;-62
2024/04/08 01:16:49;;;;;;;4.97;4.18;;;;;;;14.35;85.43;100550.38;5384243;26;20042;-63
2024/04/08 01:19:22;;;;;;;4.45;4.05;;;;;;;14.32;85.83;100541.88;5386682;26;20165;-63
2024/04/08 01:21:48;;;;;;;7.18;4.63;;;;;;;14.25;85.94;100547.06;5386661;26;20004;-63
2024/04/08 01:24:14;;;;;;;5.57;4.97;;;;;;;14.13;87.36;100539.56;5387577;26;20003;-62
2024/04/08 01:26:40;;;;;;;7.57;5.00;;;;;;;14.00;88.08;100535.56;5385687;26;20107;-62
2024/04/08 01:29:06;;;;;;;6.57;5.35;;;;;;;14.02;88.41;100541.53;5386849;26;19993;-63
2024/04/08 01:31:32;;;;;;;6.35;5.13;;;;;;;14.20;86.75;100537.91;5386296;26;19989;-62
2024/04/08 01:33:58;;;;;;;8.93;5.80;;;;;;;14.19;86.60;100534.41;5385756;26;20003;-62
2024/04/08 01:36:25;;;;;;;6.88;5.68;;;;;;;14.21;86.24;100537.72;5387225;26;20002;-62
2024/04/08 01:38:51;;;;;;;7.50;6.20;;;;;;;14.23;85.26;100542.88;5386959;26;20269;-61
2024/04/08 01:41:16;;;;;;;9.07;6.97;;;;;;;14.14;84.97;100541.22;5386251;26;20000;-62
2024/04/08 01:43:42;;;;;;;7.57;6.88;;;;;;;13.94;86.52;100546.88;5386306;26;20003;-62
2024/04/08 01:46:09;;;;;;;9.95;7.35;;;;;;;13.96;86.19;100541.38;5386375;26;19996;-62
2024/04/08 01:48:35;;;;;;;7.97;6.60;;;;;;;13.96;85.57;100536.88;5385530;26;20016;-62
2024/04/08 01:51:01;;;;;;;8.95;7.03;;;;;;;13.90;85.86;100537.53;5383566;26;19988;-64
2024/04/08 01:53:27;;;;;;;8.57;6.57;;;;;;;13.88;86.41;100542.19;5384453;26;20000;-63
2024/04/08 01:55:53;;;;;;;8.25;5.97;;;;;;;13.85;86.97;100544.34;5385526;26;20012;-63
2024/04/08 01:58:19;;;;;;;7.95;6.30;;;;;;;13.91;86.75;100535.72;5386411;26;20103;-63
2024/04/08 02:00:44;;;;;;;8.18;6.78;;;;;;;14.01;86.22;100531.06;5384293;26;20263;-63
2024/04/08 02:03:10;;;;;;;8.15;6.43;;;;;;;13.90;85.97;100537.53;5383487;26;19988;-63
2024/04/08 02:05:36;;;;;;;8.13;6.70;;;;;;;13.77;82.43;100539.84;5385043;26;19999;-63
2024/04/08 02:08:02;;;;;;;9.35;6.32;;;;;;;13.78;81.34;100535.34;5387443;26;20011;-64
2024/04/08 02:10:28;;;;;;;8.60;6.47;;;;;;;13.83;82.90;100541.03;5384011;26;19996;-63
2024/04/08 02:12:54;;;;;;;7.03;6.32;;;;;;;13.86;83.48;100538.03;5387058;26;20234;-63
2024/04/08 02:15:20;;;;;;;8.20;6.03;;;;;;;13.87;79.12;100550.34;5384353;26;20035;-62
2024/04/08 02:17:46;;;;;;;7.63;5.85;;;;;;;13.86;78.38;100540.69;5383398;26;20004;-63
2024/04/08 02:20:12;;;;;;;7.50;6.10;;;;;;;13.90;78.96;100544.69;5384639;26;19996;-63
2024/04/08 02:22:38;;;;;;;7.90;5.95;;;;;;;13.90;81.42;100542.03;5385397;26;20333;-63
2024/04/08 02:25:04;;;;;;;9.35;6.63;;;;;;;13.83;83.30;100544.50;5384282;26;20001;-64
2024/04/08 02:27:30;;;;;;;7.65;6.13;;;;;;;13.68;85.37;100548.81;5383953;26;20004;-63
2024/04/08 02:29:57;;;;;;;8.73;6.47;;;;;;;13.65;86.70;100538.47;5383151;26;20269;-63
2024/04/08 02:32:24;;;;;;;7.03;5.90;;;;;;;13.66;86.11;100548.97;5385010;26;19988;-63
2024/04/08 02:34:50;;;;;;;7.55;5.28;;;;;;;13.68;86.33;100546.97;5386353;26;20015;-63
2024/04/08 02:37:16;;;;;;;9.73;5.57;;;;;;;13.67;86.81;100541.81;5384538;26;20007;-63
2024/04/08 02:39:42;;;;;;;6.28;5.18;;;;;;;13.56;87.94;100540.28;5385088;26;19996;-64
2024/04/08 02:42:08;;;;;;;7.25;5.18;;;;;;;13.57;88.46;100543.78;5383689;26;20207;-64
2024/04/08 02:44:34;;;;;;;7.82;5.57;;;;;;;13.61;87.94;100545.97;5384152;26;20031;-63
2024/04/08 02:47:00;;;;;;;5.43;4.93;;;;;;;13.56;87.21;100534.97;5384093;26;20008;-63
2024/04/08 02:49:27;;;;;;;6.35;5.18;;;;;;;13.47;88.61;100543.06;5386080;26;20181;-63
2024/04/08 02:51:54;;;;;;;6.70;5.22;;;;;;;13.38;88.60;100544.84;5382917;26;20360;-63
2024/04/08 02:54:20;;;;;;;6.68;5.60;;;;;;;13.02;90.26;100545.00;5385100;26;19995;-63
2024/04/08 02:56:48;;;;;;;6.47;5.35;;;;;;;13.09;89.58;100551.34;5381680;26;19996;-62
2024/04/08 02:59:17;;;;;;;5.75;5.20;;;;;;;13.06;89.02;100556.97;5383915;26;19993;-63
2024/04/08 03:01:43;;;;;;;5.75;4.45;;;;;;;13.20;87.10;100555.59;5383804;26;19992;-63
2024/04/08 03:04:09;;;;;;;6.15;4.78;;;;;;;13.02;87.88;100560.13;5384633;26;20346;-63
2024/04/08 03:06:35;;;;;;;5.93;5.28;;;;;;;12.76;88.16;100552.16;5384537;26;20563;-63
2024/04/08 03:09:04;;;;;;;6.70;4.35;;;;;;;12.81;88.10;100549.88;5384554;26;20601;-63
2024/04/08 03:11:30;;;;;;;6.40;4.43;;;;;;;12.95;86.72;100559.91;5384450;26;19992;-63
2024/04/08 03:13:56;;;;;;;5.30;3.80;;;;;;;12.97;86.63;100559.75;5383511;26;19992;-63
2024/04/08 03:16:22;;;;;;;4.20;3.80;;;;;;;13.00;86.15;100562.09;5385413;26;20486;-63
2024/04/08 03:18:50;;;;;;;5.68;4.18;;;;;;;13.00;85.56;100560.28;5382541;26;20007;-64
2024/04/08 03:21:16;;;;;;;8.40;4.35;;;;;;;12.94;85.45;100568.03;5384179;26;20012;-63
2024/04/08 03:23:42;;;;;;;4.35;3.92;;;;;;;12.71;86.40;100568.56;5383588;26;20008;-65
2024/04/08 03:26:12;;;;;;;5.28;3.90;;;;;;;12.71;86.87;100570.38;5385057;26;20003;-64
2024/04/08 03:28:38;;;;;;;5.55;4.05;;;;;;;12.72;86.72;100572.06;5383874;26;20112;-64
2024/04/08 03:31:05;;;;;;;6.90;3.83;;;;;;;12.68;86.12;100576.03;5384432;26;20039;-64
2024/04/08 03:33:33;;;;;;;5.15;3.88;;;;;;;12.66;86.16;100578.00;5382572;26;20008;-64
2024/04/08 03:35:59;;;;;;;5.82;3.95;;;;;;;12.62;85.73;100582.78;5384509;26;20057;-64
2024/04/08 03:38:25;;;;;;;5.00;3.38;;;;;;;12.74;84.93;100583.38;5386805;26;19996;-63
2024/04/08 03:40:59;;;;;;;8.02;3.90;;;;;;;12.80;83.97;100582.75;5387964;26;19992;-64
2024/04/08 03:43:25;;;;;;;4.78;3.25;;;;;;;12.77;83.84;100580.41;5387798;26;20245;-63
2024/04/08 03:45:52;;;;;;;3.72;3.20;;;;;;;12.85;82.79;100575.13;5387290;26;19988;-63
2024/04/08 03:48:18;;;;;;;4.63;3.20;;;;;;;12.87;81.30;100575.81;5388001;26;20001;-64
2024/04/08 03:50:43;;;;;;;4.15;3.10;;;;;;;12.74;81.56;100578.88;5384639;26;20003;-64
2024/04/08 03:53:10;;;;;;;3.03;2.75;;;;;;;12.69;81.76;100586.50;5388338;26;19996;-65
2024/04/08 03:55:35;;;;;;;5.32;3.17;;;;;;;12.67;81.44;100593.78;5385984;26;19992;-64
2024/04/08 03:58:01;;;;;;;4.85;3.15;;;;;;;12.66;81.83;100593.94;5383000;26;20101;-64
2024/04/08 04:00:28;;;;;;;5.85;3.13;;;;;;;12.73;81.40;100602.97;5383718;26;19999;-64
2024/04/08 04:02:55;;;;;;;4.90;2.50;;;;;;;12.67;80.99;100608.88;5386984;26;19993;-64
2024/04/08 04:05:21;;;;;;;4.55;2.83;;;;;;;12.57;81.62;100611.63;5387978;26;20003;-64
2024/04/08 04:07:49;;;;;;;4.05;3.30;;;;;;;12.60;81.86;100614.00;5385767;26;19992;-64
2024/04/08 04:10:17;;;;;;;8.82;3.42;;;;;;;12.52;82.16;100610.44;5387292;26;19996;-64
2024/04/08 04:12:44;;;;;;;6.65;3.83;;;;;;;12.59;82.69;100616.78;5385082;26;20004;-64
2024/04/08 04:15:12;;;;;;;6.45;4.40;;;;;;;12.52;82.29;100611.25;5386771;26;19993;-65
2024/04/08 04:17:39;;;;;;;7.05;3.95;;;;;;;12.50;83.39;100617.72;5385799;26;20004;-64
2024/04/08 04:20:08;;;;;;;7.30;4.00;;;;;;;12.51;84.13;100616.72;5386792;26;20111;-64
2024/04/08 04:22:34;;;;;;;6.18;4.75;;;;;;;12.56;84.65;100617.09;5385872;26;20058;-64
2024/04/08 04:25:00;;;;;;;5.80;3.90;;;;;;;12.59;84.54;100619.47;5386441;26;20015;-64
2024/04/08 04:27:26;;;;;;;6.53;3.72;;;;;;;12.54;85.76;100616.44;5386004;26;20214;-64
2024/04/08 04:29:52;;;;;;;7.75;4.80;;;;;;;12.65;85.75;100622.34;5386335;26;20277;-63
2024/04/08 04:32:18;;;;;;;6.43;4.40;;;;;;;12.76;85.52;100623.91;5386622;26;20000;-64
2024/04/08 04:34:44;;;;;;;7.00;4.88;;;;;;;12.86;85.21;100621.16;5384801;26;20208;-64
2024/04/08 04:37:10;;;;;;;6.53;5.05;;;;;;;12.85;85.46;100620.31;5383443;26;20016;-64
2024/04/08 04:39:36;;;;;;;8.55;4.63;;;;;;;12.87;85.90;100623.66;5385389;26;19996;-64
2024/04/08 04:42:03;;;;;;;7.30;4.60;;;;;;;12.99;85.04;100606.47;5386043;26;20000;-62
2024/04/08 04:44:29;;;;;;;6.68;4.85;;;;;;;12.97;85.90;100616.41;5382877;26;19992;-62
2024/04/08 04:46:55;;;;;;;11.90;4.80;;;;;;;12.95;86.45;100617.56;5386561;26;19996;-62
2024/04/08 04:49:21;;;;;;;8.65;4.75;;;;;;;13.19;85.74;100617.75;5383457;26;20042;-61
2024/04/08 04:51:47;;;;;;;5.63;4.22;;;;;;;13.28;85.37;100616.78;5385331;26;20000;-63
2024/04/08 04:54:13;;;;;;;6.63;4.32;;;;;;;13.30;85.88;100614.81;5383962;26;19996;-64
2024/04/08 04:56:39;;;;;;;9.52;4.28;;;;;;;13.32;86.35;100619.97;5384579;26;19992;-63
2024/04/08 04:59:05;;;;;;;9.73;4.85;;;;;;;13.31;87.53;100619.13;5384569;26;20099;-64
2024/04/08 05:01:30;;;;;;;7.55;4.68;;;;;;;13.43;87.15;100615.22;5384598;26;20207;-64
2024/04/08 05:03:56;;;;;;;8.35;5.05;;;;;;;13.49;87.19;100629.69;5386124;26;19997;-62
2024/04/08 05:06:22;;;;;;;7.80;5.03;;;;;;;13.57;87.12;100615.63;5385443;26;20011;-62
2024/04/08 05:08:49;;;;;;;8.13;5.45;;;;;;;13.69;87.11;100625.81;5386105;26;19992;-64
2024/04/08 05:11:15;;;;;;;7.22;5.72;;;;;;;13.72;86.61;100628.16;5384785;26;20004;-65
2024/04/08 05:13:41;;;;;;;6.88;4.60;;;;;;;13.80;86.78;100623.88;5386422;26;19996;-64
2024/04/08 05:16:10;;;;;;;7.93;5.05;;;;;;;14.03;86.31;100625.75;5385299;26;20008;-63
2024/04/08 05:18:37;;;;;;;9.88;5.95;;;;;;;14.18;85.06;100627.78;5386540;26;20007;-62
2024/04/08 05:21:03;;;;;;;8.73;5.10;;;;;;;14.41;84.59;100630.66;5387395;26;19998;-62
2024/04/08 05:23:29;;;;;;;8.52;5.53;;;;;;;14.67;82.66;100626.88;5386824;26;20003;-64
2024/04/08 05:25:55;;;;;;;11.75;5.53;;;;;;;14.86;81.78;100631.03;5384446;26;20024;-64
2024/04/08 05:28:22;;;;;;;8.52;6.30;;;;;;;15.02;81.74;100640.84;5387553;26;20020;-62
2024/04/08 05:30:48;;;;;;;7.60;5.93;;;;;;;15.20;80.76;100630.81;5386064;26;20170;-62
2024/04/08 05:33:16;;;;;;;7.28;4.90;;;;;;;15.42;79.20;100628.44;5387124;26;19997;-63
2024/04/08 05:35:44;;;;;;;13.43;6.60;;;;;;;15.52;78.53;100621.03;5385293;26;20011;-63
2024/04/08 05:38:11;;;;;;;7.10;5.07;;;;;;;15.69;77.81;100638.72;5384875;26;20198;-63
2024/04/08 05:40:38;;;;;;;8.73;5.78;;;;;;;15.81;77.49;100634.66;5385210;26;20002;-63
2024/04/08 05:43:05;;;;;;;7.78;4.82;;;;;;;15.91;77.20;100623.78;5385125;26;20007;-63
2024/04/08 05:45:32;;;;;;;8.07;4.93;;;;;;;16.02;75.93;100634.06;5384986;26;19999;-64
2024/04/08 05:47:58;;;;;;;6.00;4.65;;;;;;;16.13;75.74;100635.50;5385143;26;20004;-64
2024/04/08 05:50:24;;;;;;;4.85;4.35;;;;;;;16.05;75.31;100638.22;5385363;26;20000;-64
2024/04/08 05:52:51;;;;;;;5.53;4.50;;;;;;;16.20;75.68;100645.31;5385678;26;19996;-63
2024/04/08 05:55:17;;;;;;;7.45;5.20;;;;;;;16.37;74.97;100648.69;5386052;26;19996;-62
2024/04/08 05:57:43;;;;;;;9.27;4.60;;;;;;;16.46;75.56;100650.31;5384627;26;20310;-63
2024/04/08 06:00:10;;;;;;;4.88;4.03;;;;;;;16.65;74.80;100646.38;5385023;26;20046;-63
2024/04/08 06:02:39;;;;;;;4.82;4.32;;;;;;;16.76;74.79;100642.44;5385067;26;20054;-62
2024/04/08 06:05:08;;;;;;;5.53;4.30;;;;;;;16.82;74.33;100653.25;5387375;26;19996;-62
2024/04/08 06:07:34;;;;;;;6.75;4.00;;;;;;;16.96;74.75;100650.78;5383561;26;20003;-62
2024/04/08 06:10:00;;;;;;;4.85;4.15;;;;;;;17.10;73.73;100652.66;5385906;26;20011;-62
2024/04/08 06:12:26;;;;;;;5.15;4.28;;;;;;;17.33;74.26;100648.06;5384568;26;20203;-63
2024/04/08 06:14:52;;;;;;;7.50;4.85;;;;;;;17.22;72.59;100651.19;5385241;26;19992;-63
2024/04/08 06:17:18;;;;;;;5.72;4.07;;;;;;;17.23;73.85;100651.03;5384870;26;20000;-63
2024/04/08 06:19:44;;;;;;;5.50;4.72;;;;;;;17.39;73.84;100655.38;5386224;26;20015;-63
2024/04/08 06:22:13;;;;;;;7.25;4.65;;;;;;;17.46;74.02;100655.47;5385881;26;19996;-63
2024/04/08 06:24:41;;;;;;;9.43;5.20;;;;;;;17.63;73.09;100664.13;5385253;26;19996;-63
2024/04/08 06:27:07;;;;;;;6.55;5.00;;;;;;;17.62;72.80;100663.31;5355126;26;19992;-64
2024/04/08 06:29:33;;;;;;;6.50;4.45;;;;;;;17.79;74.03;100658.66;5384031;26;20024;-63
2024/04/08 06:32:00;;;;;;;8.00;5.10;;;;;;;18.15;72.91;100658.66;5385124;26;20000;-63
2024/04/08 06:34:26;;;;;;;7.47;5.30;;;;;;;18.48;72.29;100659.03;5385539;26;20219;-62
2024/04/08 06:36:52;;;;;;;6.13;4.47;;;;;;;18.56;71.19;100661.56;5385022;26;19992;-63
2024/04/08 06:39:18;;;;;;;6.05;5.10;;;;;;;18.39;69.83;100663.69;5384439;26;20083;-64
2024/04/08 06:41:44;;;;;;;5.47;4.60;;;;;;;18.49;70.66;100669.56;5385938;26;19992;-63
2024/04/08 06:44:10;;;;;;;7.65;5.28;;;;;;;18.75;69.89;100670.88;5383823;26;20092;-64
2024/04/08 06:46:35;;;;;;;7.07;5.38;;;;;;;18.89;69.08;100675.34;5383585;26;20212;-64
2024/04/08 06:49:01;;;;;;;6.32;5.07;;;;;;;19.13;68.38;100671.41;5384066;26;19996;-64
2024/04/08 06:51:27;;;;;;;117.47;20.33;;;;;;;19.40;67.50;100670.56;5384413;26;20020;-63
2024/04/08 06:53:53;;;;;;;18.98;6.55;;;;;;;19.55;66.39;100667.78;5385193;26;20003;-63
2024/04/08 06:56:19;;;;;;;7.78;5.45;;;;;;;19.67;65.70;100671.56;5381989;26;20437;-63
2024/04/08 06:58:47;;;;;;;9.35;6.03;;;;;;;19.54;65.33;100665.31;5382768;26;20285;-63
2024/04/08 07:01:14;;;;;;;5.68;5.07;;;;;;;19.44;64.27;100669.16;5384454;26;20000;-63
2024/04/08 07:03:40;;;;;;;7.05;5.20;;;;;;;19.44;64.33;100673.69;5385323;26;20473;-63
2024/04/08 07:06:08;;;;;;;7.72;5.03;;;;;;;19.74;63.51;100671.59;5384363;26;20008;-63
2024/04/08 07:08:35;;;;;;;6.40;5.32;;;;;;;19.74;63.13;100661.69;5384925;26;20011;-63
2024/04/08 07:11:01;;;;;;;7.63;5.25;;;;;;;20.19;62.03;100666.66;5382539;26;20055;-63
2024/04/08 07:13:27;;;;;;;5.65;4.43;;;;;;;20.16;61.74;100669.75;5387936;26;20293;-63
2024/04/08 07:15:57;;;;;;;5.15;4.53;;;;;;;20.45;60.35;100661.38;5386883;26;19999;-64
2024/04/08 07:18:23;;;;;;;5.57;4.40;;;;;;;20.59;60.97;100660.34;5389222;26;20053;-63
2024/04/08 07:20:49;;;;;;;5.22;4.25;;;;;;;20.40;61.74;100656.59;5386267;26;20153;-63
2024/04/08 07:23:15;;;;;;;4.95;4.40;;;;;;;20.33;61.25;100663.78;5388647;26;19989;-64
2024/04/08 07:25:41;;;;;;;6.03;3.85;;;;;;;20.05;61.42;100647.78;5385064;26;20036;-63
2024/04/08 07:28:07;;;;;;;6.65;4.28;;;;;;;20.30;64.26;100655.31;5389400;26;20007;-63
2024/04/08 07:30:38;;;;;;;6.70;4.40;;;;;;;20.49;64.72;100656.41;5386459;26;20204;-63
2024/04/08 07:33:04;;;;;;;5.03;4.20;;;;;;;20.43;66.03;100646.47;5387315;26;20000;-63
2024/04/08 07:35:30;;;;;;;6.18;3.92;;;;;;;20.54;67.09;100653.94;5386051;26;19997;-63
2024/04/08 07:37:57;;;;;;;6.35;3.78;;;;;;;20.71;67.33;100650.63;5388072;26;20011;-64
2024/04/08 07:40:23;;;;;;;8.52;3.90;;;;;;;20.92;67.89;100652.31;5387399;26;20007;-63
2024/04/08 07:42:48;;;;;;;4.03;3.50;;;;;;;21.13;68.52;100655.84;5387720;26;19995;-64
2024/04/08 07:45:14;;;;;;;5.10;3.00;;;;;;;21.19;64.54;100655.00;5387714;26;20020;-64
2024/04/08 07:47:41;;;;;;;5.80;4.35;;;;;;;21.17;64.87;100657.06;5388859;26;20095;-64
2024/04/08 07:50:08;;;;;;;3.65;3.10;;;;;;;21.15;68.71;100659.97;5387920;26;20003;-64
2024/04/08 07:52:37;;;;;;;6.13;4.68;;;;;;;21.18;68.17;100656.03;5386884;26;20207;-64
2024/04/08 07:55:04;;;;;;;5.35;3.67;;;;;;;21.32;65.46;100657.69;5388688;26;19992;-63
2024/04/08 07:57:30;;;;;;;4.07;3.15;;;;;;;21.46;64.45;100648.56;5385632;26;20003;-64
2024/04/08 07:59:56;;;;;;;5.03;3.40;;;;;;;21.65;64.23;100646.84;5388616;26;19996;-64
2024/04/08 08:02:23;;;;;;;4.60;3.10;;;;;;;21.57;62.09;100647.06;5385131;26;20004;-64
2024/04/08 08:04:49;;;;;;;5.43;3.35;;;;;;;21.43;65.22;100645.44;5385296;26;20118;-63
2024/04/08 08:07:15;;;;;;;4.30;2.88;;;;;;;21.53;65.97;100640.44;5387225;26;20011;-64
2024/04/08 08:09:41;;;;;;;4.00;3.50;;;;;;;21.68;64.44;100641.03;5388431;26;19988;-64
2024/04/08 08:12:07;;;;;;;5.47;3.38;;;;;;;21.66;62.66;100643.94;5385616;26;20157;-64
2024/04/08 08:14:33;;;;;;;3.30;2.80;;;;;;;21.91;65.00;100640.53;5387928;26;20069;-64
2024/04/08 08:16:59;;;;;;;3.95;2.47;;;;;;;22.17;65.41;100640.44;5386954;26;19996;-64
2024/04/08 08:19:26;;;;;;;3.15;2.83;;;;;;;22.36;62.93;100643.25;5389142;26;20003;-64
2024/04/08 08:21:52;;;;;;;3.85;3.20;;;;;;;22.59;61.33;100638.91;5387466;26;20053;-65
2024/04/08 08:24:18;;;;;;;3.72;2.65;;;;;;;22.74;59.71;100640.47;5382883;26;20000;-64
2024/04/08 08:26:45;;;;;;;5.53;1.77;;;;;;;22.54;55.11;100640.63;5387101;26;20004;-64
2024/04/08 08:29:11;;;;;;;3.05;1.65;;;;;;;22.49;58.51;100633.19;5386652;26;19997;-63
2024/04/08 08:31:36;;;;;;;4.47;1.80;;;;;;;22.66;56.92;100628.06;5387445;26;20000;-63
2024/04/08 08:34:02;;;;;;;8.15;2.47;;;;;;;22.79;53.21;100629.84;5385937;26;19992;-64
2024/04/08 08:36:28;;;;;;;15.48;2.67;;;;;;;22.80;54.20;100621.56;5388276;26;20003;-64
2024/04/08 08:38:54;;;;;;;1.90;1.80;;;;;;;22.88;56.04;100626.69;5386570;26;19992;-64
2024/04/08 08:41:23;;;;;;;3.03;1.77;;;;;;;22.89;51.22;100622.13;5387224;26;19999;-63
2024/04/08 08:43:50;;;;;;;2.35;1.65;;;;;;;22.90;52.44;100619.22;5385312;26;20004;-64
2024/04/08 08:46:17;;;;;;;1.70;1.60;;;;;;;22.95;52.56;100613.16;5386912;26;20144;-63
2024/04/08 08:48:44;;;;;;;3.90;2.30;;;;;;;22.77;50.68;100616.56;5386746;26;20057;-64
2024/04/08 08:51:11;;;;;;;1.85;1.58;;;;;;;22.72;50.66;100619.09;5386369;26;20062;-63
2024/04/08 08:53:37;;;;;;;3.65;1.73;;;;;;;22.86;48.41;100617.13;5386630;26;20036;-64
2024/04/08 08:56:06;;;;;;;53.70;8.05;;;;;;;22.53;45.59;100604.72;5384141;26;20000;-64
2024/04/08 08:58:33;;;;;;;3.60;1.60;;;;;;;22.54;48.68;100605.53;5386996;26;20000;-63
2024/04/08 09:01:00;;;;;;;2.30;1.77;;;;;;;22.64;48.21;100608.56;5386364;26;19996;-64
2024/04/08 09:03:28;;;;;;;2.92;1.30;;;;;;;22.66;44.78;100608.34;5387261;26;19996;-64
2024/04/08 09:05:55;;;;;;;2.22;1.30;;;;;;;22.67;40.93;100610.00;5386236;26;20003;-64
2024/04/08 09:08:23;;;;;;;1.52;1.10;;;;;;;22.65;41.06;100614.78;5387748;26;19999;-64
2024/04/08 09:10:49;;;;;;;1.35;1.25;;;;;;;22.60;38.84;100616.28;5387502;26;20110;-65
2024/04/08 09:13:19;;;;;;;1.10;0.90;;;;;;;22.66;37.36;100613.75;5387038;26;19996;-65
2024/04/08 09:15:45;;;;;;;1.27;0.95;;;;;;;22.63;37.54;100613.16;5382488;26;19993;-65
2024/04/08 09:18:11;;;;;;;1.35;1.25;;;;;;;22.53;38.06;100610.09;5387171;26;20003;-64
2024/04/08 09:20:37;;;;;;;1.17;1.10;;;;;;;22.49;37.13;100598.09;5384509;26;20036;-64
2024/04/08 09:23:04;;;;;;;3.55;1.40;;;;;;;22.38;39.69;100590.72;5384437;26;19988;-64
2024/04/08 09:25:31;;;;;;;1.48;1.00;;;;;;;21.98;38.53;100592.81;5384739;26;19992;-64
2024/04/08 09:27:56;;;;;;;2.00;1.00;;;;;;;21.89;39.78;100586.84;5386607;26;20004;-65
2024/04/08 09:30:22;;;;;;;1.75;1.25;;;;;;;21.95;39.76;100588.66;5386199;26;19992;-65
2024/04/08 09:32:48;;;;;;;2.50;1.08;;;;;;;22.15;39.52;100588.59;5386756;26;20028;-64
2024/04/08 09:35:15;;;;;;;1.05;0.90;;;;;;;22.21;40.81;100592.28;5383761;26;20004;-64
2024/04/08 09:37:41;;;;;;;1.38;1.05;;;;;;;22.25;41.58;100580.00;5385816;26;20103;-64
2024/04/08 09:40:08;;;;;;;2.20;1.10;;;;;;;22.34;41.34;100580.56;5386524;26;19996;-64
2024/04/08 09:42:35;;;;;;;1.60;0.98;;;;;;;22.27;39.00;100581.44;5383112;26;19988;-64
2024/04/08 09:45:03;;;;;;;1.15;1.02;;;;;;;22.22;38.65;100573.19;5386428;26;20238;-65
2024/04/08 09:47:30;;;;;;;1.67;1.02;;;;;;;22.30;39.54;100575.63;5385679;26;20052;-64
2024/04/08 09:49:58;;;;;;;1.52;0.93;;;;;;;22.34;39.72;100577.88;5384624;26;20020;-64
2024/04/08 09:52:27;;;;;;;2.50;1.02;;;;;;;22.28;40.79;100568.78;5385778;26;20000;-64
2024/04/08 09:54:56;;;;;;;0.88;0.85;;;;;;;22.25;38.66;100575.44;5387377;26;19992;-64
2024/04/08 09:57:27;;;;;;;1.10;1.00;;;;;;;22.12;37.96;100558.53;5384545;26;19992;-65
2024/04/08 09:59:57;;;;;;;1.85;1.02;;;;;;;22.14;40.02;100567.22;5386945;26;20000;-65
2024/04/08 10:02:39;;;;;;;2.22;1.02;;;;;;;22.04;39.43;100556.91;5384701;26;20211;-64
2024/04/08 10:05:06;;;;;;;1.48;0.90;;;;;;;21.88;38.54;100560.09;5387455;26;19992;-64
2024/04/08 10:07:33;;;;;;;1.55;1.13;;;;;;;21.82;39.86;100559.06;5384942;26;20150;-64
2024/04/08 10:10:03;;;;;;;2.58;1.08;;;;;;;21.92;38.79;100564.84;5386737;26;19988;-64
2024/04/08 10:12:37;;;;;;;1.20;1.10;;;;;;;21.89;39.51;100546.38;5385369;26;20007;-63
2024/04/08 10:15:16;;;;;;;;;;;;;;;21.66;38.73;100546.91;5386998;26;20053;-64
2024/04/08 10:17:45;;;;;;;1.20;1.10;;;;;;;21.57;38.32;100542.78;5384528;26;19922;-64
2024/04/08 10:20:13;;;;;;;1.33;1.00;;;;;;;21.66;38.26;100551.47;5386443;26;19992;-63
2024/04/08 10:22:39;;;;;;;0.80;0.80;;;;;;;21.69;38.80;100548.34;5385054;26;19993;-63
2024/04/08 10:25:37;;;;;;;1.00;0.82;;;;;;;21.64;39.88;100542.75;5385498;26;20099;-64
2024/04/08 10:28:04;;;;;;;2.15;1.00;;;;;;;21.79;39.12;100537.09;5385319;26;20028;-63
2024/04/08 10:30:32;;;;;;;11.30;2.35;;;;;;;21.90;39.36;100533.75;5385736;26;19992;-63
2024/04/08 10:32:59;;;;;;;2.00;1.00;;;;;;;21.93;38.07;100527.91;5384917;26;20003;-63
2024/04/08 10:35:25;;;;;;;1.00;0.90;;;;;;;21.59;38.48;100534.50;5385688;26;20007;-64
2024/04/08 10:37:51;;;;;;;1.85;0.80;;;;;;;21.32;38.99;100528.41;5384591;26;19996;-63
2024/04/08 10:40:21;;;;;;;1.10;0.90;;;;;;;21.49;39.76;100517.97;5384774;26;20019;-63
2024/04/08 10:42:48;;;;;;;1.20;1.10;;;;;;;21.70;39.66;100517.66;5385784;26;20106;-63
2024/04/08 10:45:14;;;;;;;1.10;1.00;;;;;;;21.61;39.20;100519.75;5382450;26;19989;-63
2024/04/08 10:47:40;;;;;;;2.15;0.90;;;;;;;21.54;39.03;100515.44;5384765;26;20210;-63
2024/04/08 10:50:10;;;;;;;1.38;1.00;;;;;;;21.71;39.00;100521.16;5384604;26;20016;-64
2024/04/08 10:52:39;;;;;;;1.77;1.00;;;;;;;21.90;39.22;100512.16;5385040;26;19996;-64
2024/04/08 10:55:07;;;;;;;2.45;1.20;;;;;;;21.97;37.99;100508.38;5383010;26;20730;-63
2024/04/08 10:57:33;;;;;;;5.50;1.52;;;;;;;22.05;37.56;100503.81;5384941;26;20096;-64
2024/04/08 11:00:04;;;;;;;6.07;1.55;;;;;;;22.10;37.65;100498.56;5384914;26;20820;-64
2024/04/08 11:02:32;;;;;;;0.80;0.80;;;;;;;22.04;37.50;100481.41;5383201;26;20061;-63
2024/04/08 11:05:00;;;;;;;1.67;0.80;;;;;;;22.20;38.31;100485.44;5385306;26;20095;-64
2024/04/08 11:07:29;;;;;;;14.05;1.55;;;;;;;22.40;38.72;100483.38;5384181;26;19996;-63
2024/04/08 11:09:55;;;;;;;3.78;1.08;;;;;;;22.46;38.28;100477.09;5384977;26;20008;-64
2024/04/08 11:12:21;;;;;;;0.90;0.80;;;;;;;22.55;37.39;100483.88;5384554;26;20227;-63
2024/04/08 11:14:48;;;;;;;0.80;0.80;;;;;;;22.62;36.79;100481.09;5384827;26;20003;-64
2024/04/08 11:17:15;;;;;;;1.38;0.88;;;;;;;22.57;36.17;100473.66;5384804;26;19999;-64
2024/04/08 11:19:44;;;;;;;104.68;10.00;;;;;;;22.62;37.23;100473.00;5385956;26;20000;-64
2024/04/08 11:22:11;;;;;;;1.00;0.95;;;;;;;22.25;35.08;100464.00;5385611;26;19992;-64